createdAt,value
2019-02-24T00:01:50.719Z,88.60
2019-02-24T00:04:24.261Z,88.20
2019-02-24T00:06:55.542Z,88.30
2019-02-24T00:09:26.913Z,89.00
2019-02-24T00:11:58.291Z,88.40
2019-02-24T00:14:29.659Z,88.80
2019-02-24T00:17:00.947Z,88.40
2019-02-24T00:19:32.390Z,89.00
2019-02-24T00:22:03.880Z,89.70
2019-02-24T00:24:35.193Z,89.60
2019-02-24T00:27:06.538Z,89.10
2019-02-24T00:29:37.956Z,88.90
2019-02-24T00:32:10.351Z,88.60
2019-02-24T00:34:41.707Z,89.50
2019-02-24T00:37:13.080Z,88.90
2019-02-24T00:39:44.489Z,89.30
2019-02-24T00:42:15.833Z,89.50
2019-02-24T00:44:47.235Z,90.00
2019-02-24T00:47:18.483Z,90.00
2019-02-24T00:49:49.918Z,89.90
2019-02-24T00:52:22.261Z,90.00
2019-02-24T00:54:53.652Z,89.80
2019-02-24T00:57:24.947Z,90.10
2019-02-24T00:59:56.271Z,90.00
2019-02-24T01:02:27.545Z,90.10
2019-02-24T01:04:59.217Z,90.00
2019-02-24T01:07:30.642Z,90.10
2019-02-24T01:10:02.097Z,89.90
2019-02-24T01:12:33.513Z,89.80
2019-02-24T01:15:07.830Z,89.00
2019-02-24T01:17:39.236Z,89.50
2019-02-24T01:20:11.295Z,88.00
2019-02-24T01:22:42.657Z,88.20
2019-02-24T01:25:13.977Z,87.80
2019-02-24T01:27:45.267Z,87.90
2019-02-24T01:30:16.840Z,87.60
2019-02-24T01:32:48.190Z,86.90
2019-02-24T01:35:19.537Z,87.60
2019-02-24T01:37:50.907Z,88.30
2019-02-24T01:40:22.373Z,87.90
2019-02-24T01:42:53.705Z,87.90
2019-02-24T01:45:25.150Z,88.20
2019-02-24T01:47:56.551Z,88.40
2019-02-24T01:50:28.063Z,87.30
2019-02-24T01:52:59.428Z,87.50
2019-02-24T01:55:30.791Z,87.80
2019-02-24T01:58:02.168Z,87.80
2019-02-24T02:00:33.585Z,88.40
2019-02-24T02:03:04.994Z,88.30
2019-02-24T02:05:36.396Z,88.60
2019-02-24T02:08:07.796Z,88.60
2019-02-24T02:10:39.248Z,88.60
2019-02-24T02:13:10.575Z,88.90
2019-02-24T02:15:42.202Z,89.40
2019-02-24T02:18:13.470Z,89.90
2019-02-24T02:20:44.879Z,88.10
2019-02-24T02:23:17.210Z,87.30
2019-02-24T02:25:48.472Z,87.50
2019-02-24T02:28:19.869Z,87.50
2019-02-24T02:30:51.117Z,87.80
2019-02-24T02:33:22.406Z,87.60
2019-02-24T02:35:54.824Z,87.10
2019-02-24T02:38:26.057Z,86.30
2019-02-24T02:40:57.418Z,84.90
2019-02-24T02:43:28.794Z,84.50
2019-02-24T02:46:00.083Z,83.90
2019-02-24T02:48:31.376Z,84.40
2019-02-24T02:51:02.753Z,85.10
2019-02-24T02:53:34.089Z,85.30
2019-02-24T02:56:05.505Z,85.80
2019-02-24T02:58:36.909Z,84.90
2019-02-24T03:01:08.225Z,84.30
2019-02-24T03:03:39.486Z,83.90
2019-02-24T03:06:24.689Z,84.00
2019-02-24T03:08:56.016Z,84.00
2019-02-24T03:11:27.286Z,83.10
2019-02-24T03:13:58.685Z,82.00
2019-02-24T03:16:30.027Z,81.90
2019-02-24T03:19:01.448Z,82.40
2019-02-24T03:21:33.014Z,82.50
2019-02-24T03:24:04.330Z,82.40
2019-02-24T03:26:35.694Z,83.80
2019-02-24T03:29:07.015Z,83.20
2019-02-24T03:31:38.300Z,84.10
2019-02-24T03:34:09.647Z,84.30
2019-02-24T03:36:50.718Z,84.50
2019-02-24T03:39:22.146Z,85.20
2019-02-24T03:41:53.436Z,85.20
2019-02-24T03:44:25.707Z,86.00
2019-02-24T03:46:56.985Z,85.60
2019-02-24T03:49:28.333Z,85.60
2019-02-24T03:51:59.710Z,86.00
2019-02-24T03:54:31.073Z,86.30
2019-02-24T03:57:02.347Z,85.70
2019-02-24T03:59:33.706Z,86.30
2019-02-24T04:02:05.046Z,86.10
2019-02-24T04:04:36.383Z,85.80
2019-02-24T04:07:07.674Z,85.90
2019-02-24T04:09:38.938Z,85.70
2019-02-24T04:12:10.231Z,85.40
2019-02-24T04:14:41.490Z,85.10
2019-02-24T04:17:13.013Z,84.70
2019-02-24T04:19:44.272Z,85.00
2019-02-24T04:22:15.598Z,86.10
2019-02-24T04:24:46.835Z,85.80
2019-02-24T04:27:18.147Z,86.00
2019-02-24T04:29:49.431Z,86.20
2019-02-24T04:32:20.757Z,86.00
2019-02-24T04:34:52.040Z,85.60
2019-02-24T04:37:23.346Z,85.20
2019-02-24T04:39:54.615Z,85.50
2019-02-24T04:42:25.933Z,86.00
2019-02-24T04:44:57.192Z,86.30
2019-02-24T04:47:28.588Z,86.50
2019-02-24T04:49:59.853Z,86.10
2019-02-24T04:52:31.367Z,86.50
2019-02-24T04:55:06.297Z,86.60
2019-02-24T04:57:39.426Z,87.10
2019-02-24T05:00:11.291Z,86.70
2019-02-24T05:02:43.072Z,87.10
2019-02-24T05:05:14.988Z,86.30
2019-02-24T05:07:46.444Z,86.40
2019-02-24T05:10:17.995Z,86.50
2019-02-24T05:12:49.498Z,86.30
2019-02-24T05:15:20.920Z,86.20
2019-02-24T05:17:58.099Z,85.20
2019-02-24T05:20:29.522Z,85.20
2019-02-24T05:23:00.839Z,84.90
2019-02-24T05:25:32.532Z,84.10
2019-02-24T05:28:03.913Z,84.40
2019-02-24T05:30:45.225Z,84.10
2019-02-24T05:33:16.493Z,84.90
2019-02-24T05:35:47.765Z,84.70
2019-02-24T05:38:19.522Z,85.20
2019-02-24T05:40:50.836Z,86.30
2019-02-24T05:43:22.339Z,85.50
2019-02-24T05:45:53.659Z,85.20
2019-02-24T05:48:24.926Z,85.80
2019-02-24T05:50:56.672Z,85.20
2019-02-24T05:53:28.515Z,85.20
2019-02-24T05:56:00.152Z,85.40
2019-02-24T05:58:35.329Z,84.30
2019-02-24T06:01:07.724Z,83.80
2019-02-24T06:03:39.644Z,83.90
2019-02-24T06:06:11.419Z,84.20
2019-02-24T06:08:48.755Z,84.80
2019-02-24T06:11:41.004Z,84.60
2019-02-24T06:14:31.642Z,84.60
2019-02-24T06:17:04.964Z,84.20
2019-02-24T06:19:37.150Z,83.00
2019-02-24T06:22:08.681Z,82.40
2019-02-24T06:24:40.108Z,81.40
2019-02-24T06:27:11.556Z,80.90
2019-02-24T06:29:43.041Z,80.60
2019-02-24T06:32:15.086Z,80.80
2019-02-24T06:34:46.324Z,80.50
2019-02-24T06:37:45.211Z,79.60
2019-02-24T06:40:17.568Z,79.40
2019-02-24T06:42:50.479Z,80.20
2019-02-24T06:45:22.228Z,80.90
2019-02-24T06:47:53.602Z,81.20
2019-02-24T06:50:35.061Z,81.20
2019-02-24T06:53:00.820Z,80.30
2019-02-24T06:55:32.190Z,81.00
2019-02-24T06:58:03.651Z,81.50
2019-02-24T07:00:35.050Z,80.50
2019-02-24T07:03:11.172Z,81.40
2019-02-24T07:05:42.508Z,81.60
2019-02-24T07:08:13.799Z,80.80
2019-02-24T07:10:45.192Z,81.30
2019-02-24T07:13:16.534Z,80.40
2019-02-24T07:15:47.798Z,80.80
2019-02-24T07:18:19.203Z,81.40
2019-02-24T07:20:50.426Z,80.70
2019-02-24T07:23:21.747Z,80.90
2019-02-24T07:25:53.146Z,80.60
2019-02-24T07:28:26.112Z,80.10
2019-02-24T07:30:57.369Z,80.50
2019-02-24T07:33:28.933Z,79.60
2019-02-24T07:36:00.323Z,80.40
2019-02-24T07:38:31.881Z,78.20
2019-02-24T07:41:03.286Z,78.80
2019-02-24T07:43:34.708Z,79.60
2019-02-24T07:46:07.619Z,80.10
2019-02-24T07:48:38.969Z,80.40
2019-02-24T07:51:10.197Z,81.60
2019-02-24T07:53:41.513Z,81.70
2019-02-24T07:56:12.789Z,82.40
2019-02-24T07:58:44.144Z,83.20
2019-02-24T08:01:15.462Z,82.90
2019-02-24T08:03:47.133Z,83.40
2019-02-24T08:06:19.360Z,84.20
2019-02-24T08:08:51.811Z,84.30
2019-02-24T08:11:23.184Z,84.60
2019-02-24T08:13:54.524Z,83.30
2019-02-24T08:16:25.855Z,82.50
2019-02-24T08:18:57.305Z,82.70
2019-02-24T08:21:29.631Z,81.70
2019-02-24T08:24:01.319Z,82.70
2019-02-24T08:26:32.620Z,80.50
2019-02-24T08:29:04.322Z,80.50
2019-02-24T08:31:35.739Z,80.60
2019-02-24T08:34:07.258Z,80.10
2019-02-24T08:36:38.655Z,81.10
2019-02-24T08:39:22.578Z,79.40
2019-02-24T08:41:53.974Z,82.20
2019-02-24T08:44:25.331Z,78.10
2019-02-24T08:46:56.728Z,73.20
2019-02-24T08:49:29.143Z,67.70
2019-02-24T08:52:00.807Z,70.00
2019-02-24T08:54:35.113Z,71.70
2019-02-24T08:57:06.918Z,65.30
2019-02-24T08:59:38.621Z,66.00
2019-02-24T09:02:12.058Z,65.10
2019-02-24T09:04:44.376Z,66.70
2019-02-24T09:07:15.906Z,66.80
2019-02-24T09:09:47.383Z,65.60
2019-02-24T09:12:18.975Z,64.30
2019-02-24T09:14:59.249Z,64.80
2019-02-24T09:17:30.606Z,62.60
2019-02-24T09:20:02.012Z,61.20
2019-02-24T09:22:41.576Z,62.10
2019-02-24T09:25:13.076Z,63.90
2019-02-24T09:27:56.497Z,62.70
2019-02-24T09:30:27.949Z,61.30
2019-02-24T09:33:00.385Z,63.90
2019-02-24T09:35:31.780Z,63.40
2019-02-24T09:38:03.224Z,59.20
2019-02-24T09:40:34.567Z,59.20
2019-02-24T09:43:06.436Z,61.70
2019-02-24T09:45:37.827Z,61.80
2019-02-24T09:48:10.159Z,60.20
2019-02-24T09:50:55.983Z,62.80
2019-02-24T09:53:38.996Z,54.20
2019-02-24T09:56:17.656Z,55.00
2019-02-24T09:58:59.282Z,54.40
2019-02-24T10:01:35.954Z,56.50
2019-02-24T10:04:13.643Z,56.20
2019-02-24T10:06:53.275Z,57.50
2019-02-24T10:09:33.761Z,59.00
2019-02-24T10:12:12.311Z,55.90
2019-02-24T10:14:55.824Z,50.70
2019-02-24T10:17:36.308Z,53.40
2019-02-24T10:24:17.722Z,49.80
2019-02-24T10:26:58.144Z,46.90
2019-02-24T10:29:42.407Z,46.50
2019-02-24T10:32:19.030Z,46.30
2019-02-24T10:35:22.654Z,44.40
2019-02-24T10:37:55.492Z,44.20
2019-02-24T10:40:29.797Z,42.40
2019-02-24T10:43:01.119Z,42.30
2019-02-24T10:45:32.625Z,44.80
2019-02-24T10:48:14.261Z,42.60
2019-02-24T10:51:04.811Z,41.80
2019-02-24T10:53:43.040Z,41.70
2019-02-24T10:56:15.908Z,41.60
2019-02-24T10:58:47.227Z,40.80
2019-02-24T11:01:30.488Z,43.40
2019-02-24T11:04:03.989Z,43.10
2019-02-24T11:06:35.628Z,44.60
2019-02-24T11:09:24.878Z,49.00
2019-02-24T11:11:59.219Z,46.90
2019-02-24T11:14:30.498Z,47.00
2019-02-24T11:17:01.957Z,46.70
2019-02-24T11:19:35.278Z,44.80
2019-02-24T11:22:06.673Z,44.30
2019-02-24T11:24:37.989Z,45.30
2019-02-24T11:27:09.347Z,42.30
2019-02-24T11:29:40.654Z,44.40
2019-02-24T11:32:12.005Z,46.40
2019-02-24T11:34:43.396Z,45.20
2019-02-24T11:37:14.774Z,44.10
2019-02-24T11:39:46.103Z,42.20
2019-02-24T11:42:17.459Z,42.60
2019-02-24T11:44:48.787Z,43.10
2019-02-24T11:47:20.250Z,40.00
2019-02-24T11:49:51.953Z,39.30
2019-02-24T11:52:23.611Z,41.30
2019-02-24T11:54:54.897Z,43.80
2019-02-24T11:57:26.352Z,43.00
2019-02-24T11:59:57.735Z,43.10
2019-02-24T12:02:34.460Z,41.70
2019-02-24T12:05:02.184Z,40.70
2019-02-24T12:07:33.877Z,44.00
2019-02-24T12:10:11.903Z,41.20
2019-02-24T12:12:44.951Z,42.40
2019-02-24T12:15:19.681Z,38.50
2019-02-24T12:17:51.065Z,39.70
2019-02-24T12:20:22.478Z,40.30
2019-02-24T12:23:04.389Z,40.80
2019-02-24T12:25:36.787Z,40.30
2019-02-24T12:28:08.254Z,38.60
2019-02-24T12:30:39.647Z,38.70
2019-02-24T12:33:11.058Z,39.40
2019-02-24T12:35:42.379Z,37.70
2019-02-24T12:38:13.866Z,36.90
2019-02-24T12:40:45.384Z,38.60
2019-02-24T12:43:16.911Z,38.50
2019-02-24T12:45:48.434Z,37.00
2019-02-24T12:48:19.963Z,37.50
2019-02-24T12:50:51.401Z,40.90
2019-02-24T12:53:22.813Z,38.90
2019-02-24T12:55:54.227Z,38.50
2019-02-24T12:58:25.670Z,38.20
2019-02-24T13:00:57.085Z,36.50
2019-02-24T13:03:31.375Z,35.30
2019-02-24T13:06:02.699Z,38.40
2019-02-24T13:08:34.194Z,35.00
2019-02-24T13:11:05.486Z,35.80
2019-02-24T13:13:40.166Z,36.70
2019-02-24T13:16:11.564Z,37.30
2019-02-24T13:18:43.377Z,34.20
2019-02-24T13:21:14.724Z,34.00
2019-02-24T13:23:48.020Z,34.10
2019-02-24T13:26:19.507Z,33.70
2019-02-24T13:28:51.211Z,35.60
2019-02-24T13:31:22.572Z,36.80
2019-02-24T13:33:53.877Z,35.60
2019-02-24T13:36:35.451Z,34.10
2019-02-24T13:39:08.449Z,34.20
2019-02-24T13:41:40.023Z,34.70
2019-02-24T13:44:11.415Z,34.40
2019-02-24T13:46:42.764Z,32.10
2019-02-24T13:49:14.083Z,32.00
2019-02-24T13:51:45.341Z,33.80
2019-02-24T13:54:16.667Z,32.10
2019-02-24T13:56:48.035Z,36.00
2019-02-24T13:59:19.477Z,34.20
2019-02-24T14:01:50.856Z,33.70
2019-02-24T14:04:22.186Z,34.60
2019-02-24T14:06:53.474Z,36.40
2019-02-24T14:09:24.960Z,31.70
2019-02-24T14:11:56.384Z,35.20
2019-02-24T14:14:28.708Z,32.20
2019-02-24T14:16:59.980Z,33.20
2019-02-24T14:19:31.520Z,35.40
2019-02-24T14:22:02.768Z,33.20
2019-02-24T14:24:34.209Z,33.10
2019-02-24T14:27:05.546Z,33.90
2019-02-24T14:29:39.064Z,33.70
2019-02-24T14:32:10.341Z,35.90
2019-02-24T14:34:41.726Z,33.70
2019-02-24T14:37:13.073Z,34.70
2019-02-24T14:39:46.445Z,34.70
2019-02-24T14:42:17.700Z,35.90
2019-02-24T14:44:51.136Z,35.80
2019-02-24T14:47:22.458Z,35.30
2019-02-24T14:49:52.909Z,38.20
2019-02-24T14:52:24.292Z,34.50
2019-02-24T14:54:55.804Z,35.10
2019-02-24T14:57:27.133Z,34.20
2019-02-24T15:00:00.311Z,34.10
2019-02-24T15:02:31.625Z,31.50
2019-02-24T15:05:03.989Z,33.30
2019-02-24T15:07:35.296Z,32.00
2019-02-24T15:10:10.943Z,33.30
2019-02-24T15:12:42.267Z,31.70
2019-02-24T15:15:18.501Z,30.60
2019-02-24T15:17:49.881Z,32.30
2019-02-24T15:20:22.327Z,35.10
2019-02-24T15:22:55.229Z,33.20
2019-02-24T15:25:38.728Z,34.60
2019-02-24T15:28:10.235Z,34.40
2019-02-24T15:30:41.922Z,33.10
2019-02-24T15:33:13.295Z,33.70
2019-02-24T15:35:44.751Z,32.10
2019-02-24T15:38:16.104Z,34.90
2019-02-24T15:40:48.532Z,33.10
2019-02-24T15:43:19.945Z,32.50
2019-02-24T15:45:52.432Z,32.10
2019-02-24T15:48:23.776Z,31.60
2019-02-24T15:50:55.195Z,33.80
2019-02-24T15:53:26.460Z,33.90
2019-02-24T15:55:59.406Z,32.00
2019-02-24T15:58:30.708Z,32.10
2019-02-24T16:01:02.858Z,32.80
2019-02-24T16:03:36.284Z,35.20
2019-02-24T16:06:07.819Z,34.40
2019-02-24T16:08:39.375Z,34.10
2019-02-24T16:11:10.732Z,33.70
2019-02-24T16:13:42.118Z,34.50
2019-02-24T16:16:13.639Z,34.00
2019-02-24T16:18:44.935Z,35.20
2019-02-24T16:21:19.435Z,35.00
2019-02-24T16:23:50.706Z,35.60
2019-02-24T16:26:22.299Z,35.60
2019-02-24T16:28:53.662Z,36.00
2019-02-24T16:31:25.193Z,36.50
2019-02-24T16:33:56.563Z,36.50
2019-02-24T16:36:28.152Z,37.40
2019-02-24T16:38:59.558Z,38.60
2019-02-24T16:41:31.109Z,37.90
2019-02-24T16:44:02.638Z,38.00
2019-02-24T16:46:34.167Z,38.30
2019-02-24T16:49:06.820Z,39.70
2019-02-24T16:51:38.344Z,38.80
2019-02-24T16:54:09.893Z,39.30
2019-02-24T16:56:41.291Z,39.50
2019-02-24T16:59:21.227Z,39.20
2019-02-24T17:01:52.727Z,38.70
2019-02-24T17:04:24.158Z,39.20
2019-02-24T17:06:55.650Z,40.20
2019-02-24T17:09:34.948Z,40.80
2019-02-24T17:12:08.796Z,41.80
2019-02-24T17:14:41.859Z,42.00
2019-02-24T17:17:13.794Z,43.40
2019-02-24T17:19:46.812Z,43.90
2019-02-24T17:22:18.261Z,44.80
2019-02-24T17:24:49.627Z,45.40
2019-02-24T17:27:21.078Z,45.60
2019-02-24T17:29:58.327Z,45.80
2019-02-24T17:32:29.661Z,46.10
2019-02-24T17:35:01.126Z,46.70
2019-02-24T17:37:32.929Z,46.40
2019-02-24T17:40:07.197Z,47.80
2019-02-24T17:42:38.726Z,46.70
2019-02-24T17:45:14.801Z,47.20
2019-02-24T17:47:46.730Z,47.00
2019-02-24T17:50:21.319Z,46.60
2019-02-24T17:52:52.897Z,46.30
2019-02-24T17:55:25.353Z,46.20
2019-02-24T17:57:56.664Z,46.20
2019-02-24T18:00:31.110Z,47.00
2019-02-24T18:03:02.669Z,46.30
2019-02-24T18:05:34.221Z,45.80
2019-02-24T18:08:05.605Z,45.50
2019-02-24T18:10:37.329Z,45.90
2019-02-24T18:13:08.587Z,45.90
2019-02-24T18:15:40.167Z,46.80
2019-02-24T18:18:18.009Z,47.20
2019-02-24T18:20:55.137Z,47.50
2019-02-24T18:23:28.362Z,46.60
2019-02-24T18:25:59.783Z,46.80
2019-02-24T18:28:33.925Z,46.90
2019-02-24T18:31:05.383Z,47.30
2019-02-24T18:33:36.705Z,47.10
2019-02-24T18:36:08.643Z,47.00
2019-02-24T18:38:39.918Z,47.00
2019-02-24T18:41:11.289Z,47.40
2019-02-24T18:43:42.849Z,47.40
2019-02-24T18:46:14.663Z,49.00
2019-02-24T18:48:46.053Z,48.50
2019-02-24T18:51:17.398Z,47.80
2019-02-24T18:53:48.779Z,48.30
2019-02-24T18:56:20.292Z,48.30
2019-02-24T18:58:52.767Z,48.70
2019-02-24T19:01:24.137Z,49.20
2019-02-24T19:03:58.133Z,49.50
2019-02-24T19:06:38.754Z,49.40
2019-02-24T19:09:03.614Z,49.10
2019-02-24T19:11:36.705Z,49.50
2019-02-24T19:14:08.449Z,49.20
2019-02-24T19:16:39.763Z,49.80
2019-02-24T19:19:11.033Z,49.90
2019-02-24T19:21:42.403Z,49.80
2019-02-24T19:24:13.787Z,50.40
2019-02-24T19:26:45.877Z,50.40
2019-02-24T19:29:17.365Z,51.00
2019-02-24T19:31:48.916Z,50.30
2019-02-24T19:34:20.162Z,50.60
2019-02-24T19:36:51.522Z,50.50
2019-02-24T19:39:23.007Z,50.80
2019-02-24T19:41:54.457Z,52.00
2019-02-24T19:44:28.560Z,51.20
2019-02-24T19:47:00.021Z,50.90
2019-02-24T19:49:31.416Z,51.80
2019-02-24T19:52:03.629Z,51.30
2019-02-24T19:54:35.063Z,51.20
2019-02-24T19:57:06.495Z,51.60
2019-02-24T19:59:37.884Z,52.20
2019-02-24T20:02:09.271Z,52.10
2019-02-24T20:04:40.899Z,50.90
2019-02-24T20:07:12.389Z,51.10
2019-02-24T20:09:43.775Z,50.60
2019-02-24T20:12:15.189Z,50.60
2019-02-24T20:14:46.445Z,52.00
2019-02-24T20:17:17.836Z,52.00
2019-02-24T20:19:50.159Z,52.90
2019-02-24T20:22:21.485Z,52.60
2019-02-24T20:24:52.912Z,54.00
2019-02-24T20:27:24.307Z,52.80
2019-02-24T20:29:55.670Z,52.50
2019-02-24T20:32:26.983Z,52.80
2019-02-24T20:34:58.236Z,52.90
2019-02-24T20:37:29.579Z,52.90
2019-02-24T20:40:00.940Z,54.20
2019-02-24T20:42:32.269Z,54.50
2019-02-24T20:45:03.822Z,53.10
2019-02-24T20:47:35.281Z,52.80
2019-02-24T20:50:10.972Z,53.20
2019-02-24T20:52:42.349Z,54.30
2019-02-24T20:55:13.795Z,53.40
2019-02-24T20:57:45.121Z,55.30
2019-02-24T21:00:30.006Z,54.60
2019-02-24T21:03:01.593Z,54.80
2019-02-24T21:05:34.136Z,54.40
2019-02-24T21:08:05.508Z,54.30
2019-02-24T21:10:36.871Z,55.00
2019-02-24T21:13:08.190Z,55.60
2019-02-24T21:15:39.555Z,55.60
2019-02-24T21:18:10.892Z,54.70
2019-02-24T21:20:42.375Z,54.30
2019-02-24T21:23:13.620Z,53.70
2019-02-24T21:25:46.945Z,54.50
2019-02-24T21:28:18.222Z,55.80
2019-02-24T21:30:49.583Z,54.60
2019-02-24T21:33:20.909Z,54.20
2019-02-24T21:35:52.197Z,55.30
2019-02-24T21:38:23.455Z,55.40
2019-02-24T21:40:54.773Z,56.40
2019-02-24T21:43:26.036Z,57.40
2019-02-24T21:45:57.435Z,58.40
2019-02-24T21:48:28.905Z,59.60
2019-02-24T21:51:00.320Z,58.60
2019-02-24T21:53:31.679Z,60.00
2019-02-24T21:56:02.947Z,60.40
2019-02-24T21:58:34.558Z,58.60
2019-02-24T22:01:07.112Z,58.10
2019-02-24T22:03:38.455Z,58.70
2019-02-24T22:06:09.766Z,58.40
2019-02-24T22:08:41.059Z,59.00
2019-02-24T22:11:12.410Z,60.80
2019-02-24T22:13:43.806Z,61.50
2019-02-24T22:16:15.206Z,61.30
2019-02-24T22:18:46.794Z,62.10
2019-02-24T22:21:18.066Z,62.20
2019-02-24T22:23:49.383Z,64.10
2019-02-24T22:26:21.706Z,63.60
2019-02-24T22:28:53.044Z,63.60
2019-02-24T22:31:25.418Z,63.60
2019-02-24T22:33:56.662Z,63.60
2019-02-24T22:36:29.591Z,65.00
2019-02-24T22:39:00.902Z,64.20
2019-02-24T22:41:33.808Z,63.80
2019-02-24T22:44:05.138Z,64.90
2019-02-24T22:46:36.433Z,63.50
2019-02-24T22:49:07.769Z,63.60
2019-02-24T22:51:39.072Z,63.30
2019-02-24T22:54:10.370Z,62.80
2019-02-24T22:56:41.775Z,61.80
2019-02-24T22:59:13.023Z,61.60
2019-02-24T23:01:46.292Z,60.40
2019-02-24T23:04:17.848Z,60.40
2019-02-24T23:06:49.314Z,60.40
2019-02-24T23:09:21.589Z,60.70
2019-02-24T23:11:53.099Z,61.00
2019-02-24T23:14:24.416Z,61.30
2019-02-24T23:16:55.801Z,61.20
2019-02-24T23:19:27.050Z,63.00
2019-02-24T23:21:59.465Z,62.60
2019-02-24T23:24:30.723Z,62.20
2019-02-24T23:27:02.183Z,61.60
2019-02-24T23:29:33.529Z,61.90
2019-02-24T23:32:05.031Z,61.90
2019-02-24T23:34:36.310Z,61.20
2019-02-24T23:37:07.643Z,61.00
2019-02-24T23:39:39.024Z,61.30
2019-02-24T23:42:10.275Z,60.20
2019-02-24T23:44:42.672Z,60.20
2019-02-24T23:47:13.992Z,60.40
2019-02-24T23:49:45.442Z,60.60
2019-02-24T23:52:17.026Z,61.10
2019-02-24T23:54:48.276Z,60.70
2019-02-24T23:57:19.601Z,61.70
2019-02-24T23:59:50.834Z,62.00
